Terminal Aerodrome Forecast
Issued by NWS

Home | Current Version | Previous Version | Text Only | Print | Product List | Glossary On
Versions: 1 2 3 4 5 6 7 8 9 10 11 12 13 14 15 16
000
FTUS41 KCLE 300500 CCA
TAFFDY
TAF COR
KFDY 300531Z 3006/3106 25018G28KT P6SM SCT025 OVC035
      TEMPO 3006/3008 OVC025
     FM300800 28012G22KT P6SM SCT035 OVC050
     FM301000 27010KT P6SM SCT050 BKN250
      TEMPO 3010/3014 BKN050
     FM301400 26015G25KT P6SM SCT250
     FM302100 26014G22KT P6SM SCT120 BKN250
     FM310200 24007KT P6SM OVC120=

USA.gov is the U.S. government's official web portal to all federal, state and local government web resources and services.